Time;durP1;ratioP1;P1;durP2;ratioP2;P2;SDS_P1;SDS_P2;PMS_P1;PMS_P2;Temp;Humidity;BMP_temperature;BMP_pressure;BME280_temperature;BME280_humidity;BME280_pressure;Samples;Min_cycle;Max_cycle;Signal;HPM_P1;HPM_P2
2021/12/05 00:16:52;;;;;;;3.80;1.35;;;-0.20;84.90;;;;;;2694487;53;20065;-35
2021/12/05 00:23:08;;;;;;;3.40;1.20;;;-0.40;83.20;;;;;;2694885;52;20077;-33
2021/12/05 00:25:37;;;;;;;2.50;0.90;;;-0.40;82.10;;;;;;2697652;53;20146;-34
2021/12/05 00:31:12;;;;;;;9.17;1.30;;;-0.40;82.00;;;;;;2693535;53;20120;-35
2021/12/05 00:33:57;;;;;;;4.17;0.90;;;-0.30;81.20;;;;;;2698015;53;20068;-38
2021/12/05 00:45:34;;;;;;;1.50;0.97;;;-0.40;83.80;;;;;;2698068;53;20069;-33
2021/12/05 01:06:21;;;;;;;3.87;1.30;;;-0.40;82.90;;;;;;2686424;53;20070;-45
2021/12/05 01:16:35;;;;;;;1.60;0.80;;;-0.50;79.60;;;;;;2659772;53;20072;-35
2021/12/05 01:19:02;;;;;;;1.20;1.10;;;-0.40;78.50;;;;;;2663698;53;20560;-34
2021/12/05 01:21:30;;;;;;;3.40;0.93;;;-0.40;78.30;;;;;;2668617;53;20071;-33
2021/12/05 01:26:58;;;;;;;3.47;0.90;;;-0.50;77.20;;;;;;2659402;53;20095;-33
2021/12/05 01:29:37;;;;;;;3.10;0.60;;;-0.40;78.00;;;;;;2663657;53;20064;-33
2021/12/05 01:32:23;;;;;;;2.07;0.60;;;-0.50;77.20;;;;;;2657234;53;20667;-33
2021/12/05 01:38:03;;;;;;;3.57;1.30;;;-0.50;78.00;;;;;;2653826;53;20120;-33
2021/12/05 01:41:34;;;;;;;2.20;0.83;;;-0.50;80.00;;;;;;2662949;53;20067;-34
2021/12/05 01:50:19;;;;;;;1.63;0.70;;;-0.50;80.20;;;;;;2639169;54;20074;-45
2021/12/05 01:52:43;;;;;;;2.63;0.97;;;-0.50;81.30;;;;;;2644923;54;20550;-34
2021/12/05 01:55:41;;;;;;;2.17;1.15;;;-0.50;79.30;;;;;;2637270;54;20077;-34
2021/12/05 02:01:15;;;;;;;5.17;0.70;;;-0.50;80.30;;;;;;2637256;54;20081;-33
2021/12/05 02:09:44;;;;;;;1.53;0.70;;;-0.60;80.70;;;;;;2641760;54;20073;-33
2021/12/05 02:15:10;;;;;;;1.30;0.67;;;-0.60;82.60;;;;;;2636864;54;20128;-33
2021/12/05 02:37:37;;;;;;;1.67;0.70;;;-0.90;90.30;;;;;;2679231;53;20078;-34
2021/12/05 02:40:21;;;;;;;4.13;1.30;;;-1.00;90.60;;;;;;2686982;53;20066;-32
2021/12/05 02:43:02;;;;;;;10.80;1.03;;;-1.00;90.80;;;;;;2686831;53;20128;-33
2021/12/05 02:45:29;;;;;;;3.10;1.00;;;-1.00;90.50;;;;;;2687299;53;20077;-33
2021/12/05 02:47:56;;;;;;;10.33;1.27;;;-1.00;90.90;;;;;;2689294;53;20130;-33
2021/12/05 02:50:25;;;;;;;7.10;1.30;;;-1.00;91.00;;;;;;2698644;53;20143;-37
2021/12/05 02:52:57;;;;;;;6.37;0.63;;;-1.00;90.50;;;;;;2699044;53;20448;-52
2021/12/05 02:55:45;;;;;;;1.70;0.60;;;-1.00;85.30;;;;;;2698995;53;20065;-32
2021/12/05 02:58:22;;;;;;;1.20;0.57;;;-0.90;83.90;;;;;;2703785;52;20128;-32
2021/12/05 03:03:21;;;;;;;1.70;0.70;;;-0.90;82.70;;;;;;2691675;53;20096;-32
2021/12/05 03:05:56;;;;;;;2.53;0.87;;;-0.90;83.30;;;;;;2687035;53;20058;-32
2021/12/05 03:08:23;;;;;;;;;;;-1.10;85.30;;;;;;2687522;53;20066;-42
2021/12/05 03:10:50;;;;;;;1.90;0.50;;;-1.00;84.10;;;;;;2687094;53;20302;-32
2021/12/05 03:13:17;;;;;;;0.80;0.40;;;-1.10;83.60;;;;;;2687042;53;20066;-34
2021/12/05 03:15:44;;;;;;;1.60;0.50;;;-1.10;83.70;;;;;;2677326;53;20066;-32
2021/12/05 03:18:11;;;;;;;0.93;0.30;;;-1.10;84.70;;;;;;2687254;53;20073;-33
2021/12/05 03:20:38;;;;;;;8.20;0.80;;;-1.10;84.30;;;;;;2687025;53;20120;-33
2021/12/05 03:23:05;;;;;;;3.90;1.63;;;-1.20;85.10;;;;;;2670519;53;20137;-33
2021/12/05 03:25:33;;;;;;;1.00;0.40;;;-1.10;85.00;;;;;;2685111;53;20160;-33
2021/12/05 03:28:00;;;;;;;2.00;0.50;;;-1.20;84.70;;;;;;2675536;53;20085;-32
2021/12/05 03:30:27;;;;;;;1.97;1.00;;;-1.20;84.70;;;;;;2679970;53;20585;-33
2021/12/05 03:32:55;;;;;;;1.73;0.70;;;-1.20;84.60;;;;;;2691788;53;20061;-32
2021/12/05 03:35:27;;;;;;;2.00;0.73;;;-1.20;85.00;;;;;;2687736;53;20077;-33
2021/12/05 03:37:59;;;;;;;1.23;0.60;;;-1.20;85.20;;;;;;2688147;53;20135;-32
2021/12/05 03:40:28;;;;;;;1.13;0.80;;;-1.30;85.90;;;;;;2692635;53;20089;-36
2021/12/05 03:43:04;;;;;;;1.90;1.00;;;-1.30;85.00;;;;;;2692518;53;20066;-33
2021/12/05 03:45:35;;;;;;;4.43;1.30;;;-1.30;85.50;;;;;;2692527;53;20065;-33
2021/12/05 03:48:03;;;;;;;12.10;1.03;;;-1.40;85.80;;;;;;2688590;53;20070;-33
2021/12/05 03:50:30;;;;;;;4.17;0.90;;;-1.40;85.80;;;;;;2686705;53;20077;-32
2021/12/05 03:52:57;;;;;;;9.40;1.53;;;-1.40;85.50;;;;;;2686804;53;20070;-33
2021/12/05 03:55:24;;;;;;;7.70;1.50;;;-1.40;85.30;;;;;;2686459;53;20066;-32
2021/12/05 03:57:52;;;;;;;2.03;0.80;;;-1.40;84.60;;;;;;2686799;53;20070;-32
2021/12/05 04:00:24;;;;;;;2.30;0.90;;;-1.50;84.50;;;;;;2686154;53;20461;-32
2021/12/05 04:02:51;;;;;;;6.90;0.80;;;-1.50;85.80;;;;;;2697633;53;20070;-32
2021/12/05 04:05:18;;;;;;;2.20;0.83;;;-1.50;86.10;;;;;;2697911;53;20120;-31
2021/12/05 04:07:46;;;;;;;1.47;0.93;;;-1.50;86.10;;;;;;2693043;53;20058;-33
2021/12/05 04:10:13;;;;;;;2.47;0.80;;;-1.50;86.10;;;;;;2693133;53;20070;-32
2021/12/05 04:12:40;;;;;;;1.17;0.33;;;-1.60;87.60;;;;;;2697955;53;20564;-33
2021/12/05 04:15:10;;;;;;;2.67;1.00;;;-1.60;86.90;;;;;;2692793;53;20061;-33
2021/12/05 04:17:39;;;;;;;5.10;1.20;;;-1.70;88.30;;;;;;2693109;53;20070;-34
2021/12/05 04:20:07;;;;;;;3.13;0.60;;;-1.70;87.90;;;;;;2697762;53;20069;-33
2021/12/05 04:22:34;;;;;;;1.23;0.60;;;-1.70;88.10;;;;;;2688049;53;20064;-35
2021/12/05 04:25:04;;;;;;;4.00;1.10;;;-1.70;87.30;;;;;;2693036;53;20131;-34
2021/12/05 04:27:32;;;;;;;2.70;1.00;;;-1.70;87.80;;;;;;2692984;53;20062;-34
2021/12/05 04:29:58;;;;;;;1.90;0.43;;;-1.80;88.00;;;;;;2697609;53;20058;-38
2021/12/05 04:32:26;;;;;;;4.33;0.97;;;-1.80;87.80;;;;;;2692934;53;20066;-35
2021/12/05 04:34:53;;;;;;;3.50;0.70;;;-1.90;88.30;;;;;;2697509;53;20069;-35
2021/12/05 04:37:20;;;;;;;4.87;0.73;;;-1.90;89.50;;;;;;2688102;53;20089;-33
2021/12/05 04:39:47;;;;;;;5.23;0.80;;;-1.90;88.10;;;;;;2697683;53;20062;-32
2021/12/05 04:42:15;;;;;;;2.33;1.37;;;-1.90;89.00;;;;;;2692798;53;20545;-36
2021/12/05 04:44:42;;;;;;;5.77;1.03;;;-1.90;89.20;;;;;;2697857;53;20549;-40
2021/12/05 04:47:10;;;;;;;6.03;1.10;;;-2.00;89.70;;;;;;2695913;53;20127;-33
2021/12/05 04:49:39;;;;;;;3.63;1.13;;;-2.00;89.60;;;;;;2682468;53;20133;-35
2021/12/05 04:52:08;;;;;;;18.83;2.60;;;-2.00;89.20;;;;;;2692226;53;20453;-34
2021/12/05 04:54:35;;;;;;;3.07;1.10;;;-2.00;90.00;;;;;;2670358;53;20070;-35
2021/12/05 04:57:03;;;;;;;2.80;1.40;;;-2.00;89.60;;;;;;2675395;53;20071;-34
2021/12/05 04:59:34;;;;;;;3.47;1.23;;;-2.00;89.60;;;;;;2675222;53;20067;-36
2021/12/05 05:02:02;;;;;;;9.93;1.87;;;-2.00;89.60;;;;;;2675296;53;20071;-32
2021/12/05 05:04:30;;;;;;;4.53;1.00;;;-2.10;90.30;;;;;;2675311;53;20547;-34
2021/12/05 05:07:16;;;;;;;7.27;1.53;;;-2.10;90.10;;;;;;2670591;53;20079;-34
2021/12/05 05:09:45;;;;;;;4.90;1.10;;;-2.10;90.40;;;;;;2670558;53;20543;-33
2021/12/05 05:12:12;;;;;;;5.87;1.40;;;-2.10;90.20;;;;;;2674876;53;20071;-33
2021/12/05 05:14:39;;;;;;;7.33;1.70;;;-2.10;90.20;;;;;;2675060;53;20632;-37
2021/12/05 05:17:07;;;;;;;9.33;1.83;;;-2.10;90.00;;;;;;2670401;53;20059;-32
2021/12/05 05:19:39;;;;;;;4.93;1.53;;;-2.00;90.30;;;;;;2674875;53;20079;-34
2021/12/05 05:22:34;;;;;;;6.13;1.90;;;-2.00;90.40;;;;;;2674939;53;20067;-41
2021/12/05 05:49:46;;;;;;;9.93;1.90;;;-1.50;90.00;;;;;;2687274;53;20139;-33
2021/12/05 05:52:11;;;;;;;11.67;1.43;;;-1.50;89.50;;;;;;2682454;53;20066;-34
2021/12/05 05:54:42;;;;;;;5.80;1.77;;;-1.60;90.10;;;;;;2691718;53;20073;-33
2021/12/05 05:57:24;;;;;;;11.23;2.27;;;-1.60;89.50;;;;;;2687297;53;20069;-32
2021/12/05 06:00:02;;;;;;;7.97;1.20;;;-1.60;89.40;;;;;;2686977;53;20058;-33
2021/12/05 06:05:17;;;;;;;6.57;1.50;;;-1.40;87.40;;;;;;2698221;53;20560;-35
2021/12/05 06:07:46;;;;;;;0.80;0.40;;;-1.40;87.40;;;;;;2693647;53;20514;-33
2021/12/05 06:10:17;;;;;;;4.97;0.97;;;-1.30;85.70;;;;;;2698456;53;20444;-34
2021/12/05 06:12:44;;;;;;;2.13;0.80;;;-1.30;85.40;;;;;;2697805;53;20093;-32
2021/12/05 06:15:13;;;;;;;3.30;0.97;;;-1.30;84.90;;;;;;2698092;53;20068;-33
2021/12/05 06:17:40;;;;;;;2.27;1.10;;;-1.20;84.30;;;;;;2693337;53;20069;-31
2021/12/05 06:20:10;;;;;;;15.23;1.97;;;-1.20;84.20;;;;;;2693139;53;20117;-32
2021/12/05 06:22:37;;;;;;;1.53;0.80;;;-1.10;86.10;;;;;;2698062;53;20065;-32
2021/12/05 06:25:06;;;;;;;2.47;1.37;;;-1.10;84.00;;;;;;2698595;53;20136;-32
2021/12/05 06:27:33;;;;;;;3.63;1.50;;;-0.90;83.00;;;;;;2699073;53;20066;-32
2021/12/05 06:30:10;;;;;;;9.60;1.57;;;-0.80;82.40;;;;;;2698887;53;20123;-34
2021/12/05 06:49:04;;;;;;;9.00;3.17;;;-0.70;80.50;;;;;;2679333;53;20068;-31
2021/12/05 06:51:31;;;;;;;7.07;1.67;;;-0.50;82.10;;;;;;2674658;53;20055;-34
2021/12/05 06:53:58;;;;;;;13.10;1.83;;;-0.30;80.00;;;;;;2674561;53;20603;-33
2021/12/05 06:56:25;;;;;;;5.97;2.47;;;-0.20;80.40;;;;;;2670118;53;20064;-33
2021/12/05 06:58:53;;;;;;;17.93;2.97;;;0.00;80.20;;;;;;2669793;53;20075;-38
2021/12/05 07:01:20;;;;;;;8.63;2.90;;;0.00;80.20;;;;;;2674918;53;20131;-33
2021/12/05 07:03:49;;;;;;;11.00;2.40;;;-0.30;80.00;;;;;;2674710;53;20126;-33
2021/12/05 07:06:27;;;;;;;14.03;2.60;;;-0.30;82.60;;;;;;2674708;53;20302;-32
2021/12/05 07:08:59;;;;;;;11.60;2.93;;;-0.10;80.40;;;;;;2674645;53;20064;-34
2021/12/05 07:11:40;;;;;;;5.70;1.80;;;0.10;79.70;;;;;;2674406;53;20072;-32
2021/12/05 07:22:28;;;;;;;11.83;3.27;;;0.00;79.60;;;;;;2653347;53;20079;-33
2021/12/05 07:25:34;;;;;;;13.30;3.03;;;-0.40;80.40;;;;;;2658137;53;20082;-37
2021/12/05 07:44:08;;;;;;;12.60;2.33;;;0.30;78.70;;;;;;2674671;53;20072;-35
2021/12/05 07:46:35;;;;;;;15.43;2.40;;;0.40;79.40;;;;;;2670511;53;20535;-33
2021/12/05 07:49:03;;;;;;;4.57;2.43;;;1.10;78.70;;;;;;2675264;53;20153;-33
2021/12/05 07:51:31;;;;;;;5.70;1.97;;;0.80;73.60;;;;;;2681842;53;20120;-33
2021/12/05 07:56:42;;;;;;;7.33;1.80;;;0.90;72.10;;;;;;2686778;53;20661;-33
2021/12/05 08:15:57;;;;;;;3.77;1.67;;;0.70;71.90;;;;;;2693227;53;20088;-32
2021/12/05 08:18:24;;;;;;;10.03;2.77;;;0.80;71.70;;;;;;2693070;53;20062;-32
2021/12/05 08:20:51;;;;;;;5.33;1.50;;;1.00;71.50;;;;;;2681635;53;20584;-35
2021/12/05 08:23:18;;;;;;;7.47;0.80;;;1.10;70.60;;;;;;2681621;53;20186;-33
2021/12/05 08:25:53;;;;;;;6.63;1.80;;;1.20;69.40;;;;;;2676981;53;20111;-33
2021/12/05 08:32:04;;;;;;;5.47;1.43;;;1.00;69.80;;;;;;2686151;53;20059;-34
2021/12/05 08:44:56;;;;;;;;;;;1.00;73.00;;;;;;2675604;53;20075;-35
2021/12/05 10:01:38;;;;;;;3.27;1.10;;;0.00;73.60;;;;;;2686539;53;20127;-36
2021/12/05 10:18:32;;;;;;;1.67;0.97;;;-0.40;76.30;;;;;;2686495;53;20074;-33
2021/12/05 10:38:48;;;;;;;2.80;0.60;;;-0.20;75.20;;;;;;2675714;53;20113;-33
2021/12/05 10:44:10;;;;;;;2.30;0.80;;;-0.30;76.00;;;;;;2675578;53;20534;-32
2021/12/05 10:46:39;;;;;;;1.40;1.00;;;-0.40;77.00;;;;;;2672169;53;20553;-32
2021/12/05 10:49:15;;;;;;;5.87;1.27;;;-0.40;77.30;;;;;;2686978;53;20564;-32
2021/12/05 10:51:55;;;;;;;4.63;0.60;;;-0.20;77.60;;;;;;2686657;53;20062;-34
2021/12/05 10:54:24;;;;;;;1.47;0.50;;;-0.10;76.60;;;;;;2691538;53;20072;-32
2021/12/05 10:56:58;;;;;;;1.20;0.43;;;-0.30;77.90;;;;;;2686980;53;20099;-33
2021/12/05 10:59:40;;;;;;;2.25;0.70;;;-0.40;78.20;;;;;;2686941;53;20463;-32
2021/12/05 11:02:12;;;;;;;1.77;0.57;;;-0.50;79.20;;;;;;2691594;53;20120;-32
2021/12/05 11:04:47;;;;;;;1.33;0.70;;;-0.50;79.20;;;;;;2697093;53;20069;-34
2021/12/05 11:07:18;;;;;;;1.30;0.43;;;-0.50;79.40;;;;;;2698090;53;20092;-32
2021/12/05 11:09:47;;;;;;;5.77;1.87;;;-0.50;79.30;;;;;;2697972;52;20545;-33
2021/12/05 11:12:27;;;;;;;1.97;0.80;;;-0.50;79.60;;;;;;2698722;53;20065;-33
2021/12/05 11:15:02;;;;;;;2.37;0.77;;;-0.40;78.70;;;;;;2694076;53;20069;-33
2021/12/05 11:17:31;;;;;;;10.23;1.17;;;-0.60;78.80;;;;;;2703785;52;20069;-31
2021/12/05 11:20:09;;;;;;;4.03;0.80;;;-0.60;79.00;;;;;;2684804;53;20065;-32
2021/12/05 11:22:38;;;;;;;5.13;1.27;;;-0.70;79.80;;;;;;2703689;52;20073;-33
2021/12/05 11:25:14;;;;;;;8.50;1.67;;;-0.60;79.50;;;;;;2698652;53;20525;-36
2021/12/05 11:27:42;;;;;;;0.60;0.60;;;-0.60;79.10;;;;;;2694169;53;20399;-32
2021/12/05 11:30:44;;;;;;;0.77;0.40;;;-0.60;78.90;;;;;;2698540;53;20134;-32
2021/12/05 11:33:19;;;;;;;2.37;0.80;;;-0.60;78.40;;;;;;2677007;53;20082;-31
2021/12/05 11:35:52;;;;;;;4.32;0.80;;;-0.70;78.00;;;;;;2677082;53;20074;-32
2021/12/05 11:38:31;;;;;;;8.60;1.50;;;-0.80;78.70;;;;;;2681945;53;20078;-34
2021/12/05 11:41:06;;;;;;;1.70;0.87;;;-0.70;78.80;;;;;;2681834;53;20089;-33
2021/12/05 11:43:40;;;;;;;4.27;1.47;;;-0.80;78.50;;;;;;2677305;53;20066;-38
2021/12/05 11:46:20;;;;;;;1.43;0.57;;;-0.70;78.80;;;;;;2681931;53;20064;-36
2021/12/05 11:49:13;;;;;;;2.67;1.10;;;-0.80;78.20;;;;;;2666281;53;20070;-31
2021/12/05 11:51:55;;;;;;;3.90;1.40;;;-0.90;78.90;;;;;;2663694;53;20064;-33
2021/12/05 11:54:55;;;;;;;3.53;1.17;;;-0.90;79.60;;;;;;2664286;53;20079;-33
2021/12/05 11:57:27;;;;;;;3.87;1.20;;;-0.90;79.00;;;;;;2643607;53;20077;-33
2021/12/05 12:00:05;;;;;;;2.97;0.80;;;-0.80;79.20;;;;;;2652653;53;20128;-39
2021/12/05 12:02:38;;;;;;;7.93;1.43;;;-0.90;79.70;;;;;;2648328;53;20069;-31
2021/12/05 12:05:27;;;;;;;2.13;0.83;;;-0.90;79.40;;;;;;2653120;53;20080;-33
2021/12/05 12:08:02;;;;;;;3.47;1.30;;;-0.80;79.80;;;;;;2648152;53;20136;-33
2021/12/05 12:10:36;;;;;;;0.70;0.40;;;-0.90;79.70;;;;;;2658052;53;20068;-36
2021/12/05 12:13:10;;;;;;;0.82;0.57;;;-0.90;79.70;;;;;;2668697;53;20072;-44
2021/12/05 12:15:43;;;;;;;2.53;1.00;;;-1.00;80.10;;;;;;2668517;53;20480;-32
2021/12/05 12:18:23;;;;;;;0.90;0.50;;;-1.00;80.00;;;;;;2664148;53;20068;-32
2021/12/05 12:20:51;;;;;;;2.40;0.80;;;-1.00;80.60;;;;;;2664111;53;20149;-33
2021/12/05 12:23:19;;;;;;;0.83;0.30;;;-1.00;80.50;;;;;;2653226;53;20064;-34
2021/12/05 12:25:51;;;;;;;0.30;0.30;;;-1.00;80.70;;;;;;2658439;53;20083;-34
2021/12/05 12:28:18;;;;;;;1.63;0.80;;;-1.00;81.10;;;;;;2658487;53;20080;-32
2021/12/05 12:30:52;;;;;;;0.30;0.20;;;-1.10;81.30;;;;;;2658062;53;20076;-34
2021/12/05 12:33:30;;;;;;;2.60;0.93;;;-1.10;81.70;;;;;;2659347;53;20594;-32
2021/12/05 12:35:57;;;;;;;1.43;0.63;;;-1.10;81.90;;;;;;2679267;53;20090;-33
2021/12/05 12:38:30;;;;;;;2.03;0.83;;;-1.10;82.40;;;;;;2670798;53;20073;-33
2021/12/05 12:41:04;;;;;;;6.83;1.80;;;-1.10;82.80;;;;;;2670431;53;20078;-34
2021/12/05 12:43:41;;;;;;;1.58;0.80;;;-1.20;83.00;;;;;;2674868;53;20197;-33
2021/12/05 12:46:31;;;;;;;3.20;1.00;;;-1.10;83.20;;;;;;2679925;53;20069;-31
2021/12/05 12:49:15;;;;;;;8.90;1.77;;;-1.10;83.60;;;;;;2675191;53;20543;-33
2021/12/05 12:51:54;;;;;;;7.37;1.70;;;-1.20;84.20;;;;;;2675390;53;20444;-33
2021/12/05 12:54:53;;;;;;;3.57;0.80;;;-1.20;84.20;;;;;;2675427;53;20431;-36
2021/12/05 12:57:31;;;;;;;2.60;0.67;;;-1.10;83.90;;;;;;2674676;53;20131;-34
2021/12/05 13:00:07;;;;;;;3.33;1.20;;;-1.10;83.70;;;;;;2677221;53;20074;-35
2021/12/05 13:05:54;;;;;;;2.87;1.13;;;-1.20;83.80;;;;;;2691875;53;20078;-32
2021/12/05 13:11:17;;;;;;;5.33;1.20;;;-1.20;84.30;;;;;;2691895;53;20471;-34
2021/12/05 13:13:47;;;;;;;0.43;0.33;;;-1.20;84.80;;;;;;2691688;53;20065;-36
2021/12/05 13:16:22;;;;;;;2.37;0.97;;;-1.20;84.50;;;;;;2686706;53;20515;-33
2021/12/05 13:18:57;;;;;;;1.02;0.70;;;-1.20;85.40;;;;;;2680384;53;20074;-32
2021/12/05 13:21:35;;;;;;;4.13;1.53;;;-1.30;85.10;;;;;;2675941;53;20531;-34
2021/12/05 13:24:36;;;;;;;6.23;2.30;;;-1.30;85.20;;;;;;2685335;53;20086;-34
2021/12/05 13:27:08;;;;;;;5.73;2.00;;;-1.30;85.60;;;;;;2675986;53;20550;-32
2021/12/05 13:29:52;;;;;;;1.60;0.63;;;-1.40;86.10;;;;;;2675726;53;20065;-34
2021/12/05 13:32:25;;;;;;;5.23;1.87;;;-1.40;85.80;;;;;;2676401;53;20074;-34
2021/12/05 13:35:00;;;;;;;4.30;1.00;;;-1.40;85.90;;;;;;2679958;53;20077;-35
2021/12/05 13:37:37;;;;;;;2.63;0.95;;;-1.40;86.20;;;;;;2676086;53;20156;-33
2021/12/05 13:40:07;;;;;;;1.60;0.60;;;-1.40;86.30;;;;;;2675959;53;20078;-32
2021/12/05 13:42:46;;;;;;;6.73;1.23;;;-1.40;86.10;;;;;;2685053;53;20496;-36
2021/12/05 13:45:26;;;;;;;1.10;0.80;;;-1.40;85.00;;;;;;2676060;53;20079;-36
2021/12/05 13:47:58;;;;;;;2.17;0.97;;;-1.40;84.70;;;;;;2688810;53;20062;-35
2021/12/05 13:51:01;;;;;;;2.40;1.00;;;-1.40;85.30;;;;;;2689531;53;20066;-31
2021/12/05 13:53:36;;;;;;;6.07;2.27;;;-1.40;85.40;;;;;;2690413;53;20073;-32
2021/12/05 13:56:10;;;;;;;9.87;3.27;;;-1.40;85.50;;;;;;2696939;53;20127;-34
2021/12/05 13:58:41;;;;;;;4.40;1.73;;;-1.50;85.80;;;;;;2692403;53;20117;-35
2021/12/05 14:01:25;;;;;;;4.57;0.93;;;-1.50;85.00;;;;;;2691998;53;20061;-37
2021/12/05 14:04:21;;;;;;;2.93;0.47;;;-1.40;84.90;;;;;;2697126;53;20203;-33
2021/12/05 14:07:02;;;;;;;1.47;0.83;;;-1.50;85.40;;;;;;2692081;53;20061;-35
2021/12/05 14:09:42;;;;;;;13.50;0.93;;;-1.50;85.40;;;;;;2696989;53;20073;-36
2021/12/05 14:12:18;;;;;;;6.70;3.07;;;-1.50;85.80;;;;;;2692307;53;20065;-34
2021/12/05 14:14:53;;;;;;;8.83;1.80;;;-1.70;86.20;;;;;;2692023;53;20137;-37
2021/12/05 14:17:28;;;;;;;10.77;3.37;;;-1.70;86.40;;;;;;2692416;53;20167;-32
2021/12/05 14:20:04;;;;;;;17.27;3.25;;;-1.80;87.80;;;;;;2696968;53;20151;-32
2021/12/05 14:22:33;;;;;;;5.43;2.93;;;-1.80;88.30;;;;;;2697129;53;20089;-33
2021/12/05 14:25:07;;;;;;;8.43;2.90;;;-1.90;88.80;;;;;;2697289;53;20077;-34
2021/12/05 14:27:44;;;;;;;17.30;3.57;;;-2.00;89.30;;;;;;2696900;53;20465;-33
2021/12/05 14:30:21;;;;;;;13.13;3.37;;;-2.10;89.70;;;;;;2692229;53;20066;-32
2021/12/05 14:32:50;;;;;;;5.57;1.57;;;-2.20;90.40;;;;;;2696940;53;20173;-34
2021/12/05 14:35:25;;;;;;;2.70;1.20;;;-2.20;90.40;;;;;;2692387;53;20448;-34
2021/12/05 14:37:52;;;;;;;5.75;2.63;;;-2.20;90.20;;;;;;2696884;53;20076;-32
2021/12/05 14:40:30;;;;;;;17.73;4.17;;;-2.20;90.10;;;;;;2692127;53;20097;-32
2021/12/05 14:43:03;;;;;;;13.97;4.97;;;-2.30;90.40;;;;;;2687638;53;20077;-33
2021/12/05 14:45:36;;;;;;;14.93;4.80;;;-2.40;90.40;;;;;;2692545;53;20069;-34
2021/12/05 14:48:10;;;;;;;20.50;4.80;;;-2.40;90.30;;;;;;2694014;53;20073;-53
2021/12/05 14:50:39;;;;;;;12.32;4.28;;;-2.40;90.70;;;;;;2683559;53;20457;-35
2021/12/05 14:53:09;;;;;;;10.73;3.63;;;-2.50;90.90;;;;;;2687623;53;20125;-36
2021/12/05 14:55:36;;;;;;;16.47;3.50;;;-2.60;91.20;;;;;;2680026;53;20137;-35
2021/12/05 14:58:10;;;;;;;11.70;4.40;;;-2.80;91.70;;;;;;2675708;53;20070;-34
2021/12/05 15:00:47;;;;;;;15.48;4.47;;;-2.90;92.70;;;;;;2680143;53;20146;-37
2021/12/05 15:03:21;;;;;;;21.37;6.83;;;-2.90;92.80;;;;;;2670858;53;20432;-34
2021/12/05 15:05:54;;;;;;;23.80;4.30;;;-3.00;93.00;;;;;;2675329;53;20075;-34
2021/12/05 15:08:23;;;;;;;14.83;4.93;;;-3.10;93.40;;;;;;2671018;53;20543;-33
2021/12/05 15:10:56;;;;;;;18.60;4.23;;;-3.20;93.50;;;;;;2680361;53;20527;-35
2021/12/05 15:13:23;;;;;;;15.60;3.77;;;-3.30;93.90;;;;;;2675450;53;20063;-36
2021/12/05 15:15:50;;;;;;;26.73;4.70;;;-3.40;94.10;;;;;;2679967;53;20071;-33
2021/12/05 15:18:23;;;;;;;14.50;5.10;;;-3.40;94.60;;;;;;2680181;53;20063;-34
2021/12/05 15:20:50;;;;;;;16.00;4.43;;;-3.50;94.80;;;;;;2675313;53;20071;-32
2021/12/05 15:23:17;;;;;;;17.83;5.50;;;-3.60;94.70;;;;;;2675658;53;20081;-34
2021/12/05 15:25:44;;;;;;;17.13;5.60;;;-3.60;94.80;;;;;;2677254;53;20089;-33
2021/12/05 15:28:12;;;;;;;20.10;4.83;;;-3.70;94.90;;;;;;2682944;53;20541;-35
2021/12/05 15:30:45;;;;;;;16.23;4.17;;;-3.70;95.20;;;;;;2687517;53;20429;-34
2021/12/05 15:33:19;;;;;;;16.30;3.97;;;-3.80;95.30;;;;;;2692025;53;20066;-33
2021/12/05 15:35:47;;;;;;;21.65;4.90;;;-3.90;95.60;;;;;;2676496;53;20189;-33
2021/12/05 15:38:22;;;;;;;16.47;6.53;;;-3.90;95.90;;;;;;2676379;53;20066;-34
2021/12/05 15:40:58;;;;;;;16.37;4.07;;;-3.90;95.90;;;;;;2676350;53;20081;-32
2021/12/05 15:43:26;;;;;;;19.40;4.73;;;-3.90;95.80;;;;;;2676898;53;20071;-38
2021/12/05 15:45:55;;;;;;;18.03;5.53;;;-4.00;95.80;;;;;;2676158;53;20069;-33
2021/12/05 15:48:27;;;;;;;14.67;6.67;;;-3.90;95.80;;;;;;2684937;53;20070;-35
2021/12/05 15:50:55;;;;;;;9.87;4.53;;;-3.80;95.40;;;;;;2691546;53;20070;-33
2021/12/05 15:53:23;;;;;;;24.13;6.30;;;-3.80;95.20;;;;;;2682124;53;20076;-34
2021/12/05 15:55:58;;;;;;;8.40;4.30;;;-3.80;95.20;;;;;;2669484;53;20068;-33
2021/12/05 15:58:32;;;;;;;24.67;5.83;;;-3.90;95.10;;;;;;2674234;53;20072;-33
2021/12/05 16:01:06;;;;;;;10.53;5.27;;;-3.90;95.60;;;;;;2674127;53;20127;-34
2021/12/05 16:03:52;;;;;;;15.17;4.13;;;-4.00;95.60;;;;;;2674740;53;20067;-33
2021/12/05 16:06:21;;;;;;;15.43;5.07;;;-3.90;95.80;;;;;;2674456;53;20075;-33
2021/12/05 16:08:49;;;;;;;12.83;5.73;;;-3.80;95.30;;;;;;2674368;53;20079;-33
2021/12/05 16:11:19;;;;;;;8.17;4.03;;;-3.70;95.40;;;;;;2674397;53;20134;-35
2021/12/05 16:13:50;;;;;;;15.17;4.23;;;-3.70;95.20;;;;;;2675058;53;20132;-41
2021/12/05 16:16:28;;;;;;;8.97;3.93;;;-3.70;95.00;;;;;;2670544;53;20079;-36
2021/12/05 16:19:00;;;;;;;3.17;1.17;;;-3.60;95.00;;;;;;2665731;53;20463;-33
2021/12/05 16:21:31;;;;;;;11.37;4.60;;;-3.50;94.80;;;;;;2675303;53;20077;-33
2021/12/05 16:24:13;;;;;;;12.73;4.40;;;-3.40;94.60;;;;;;2674884;53;20078;-33
2021/12/05 16:26:42;;;;;;;17.47;6.50;;;-3.50;94.60;;;;;;2679960;53;20573;-37
2021/12/05 16:29:38;;;;;;;16.57;7.27;;;-3.50;94.40;;;;;;2665645;53;20134;-46
2021/12/05 16:32:05;;;;;;;17.73;6.43;;;-3.50;94.50;;;;;;2670312;53;20075;-35
2021/12/05 16:34:33;;;;;;;16.40;5.53;;;-3.50;94.60;;;;;;2687107;53;20080;-34
2021/12/05 16:37:07;;;;;;;15.13;5.83;;;-3.60;94.60;;;;;;2686952;53;20117;-38
2021/12/05 16:39:39;;;;;;;16.57;6.00;;;-3.70;94.70;;;;;;2687092;53;20513;-37
2021/12/05 16:42:10;;;;;;;14.87;6.13;;;-3.70;95.00;;;;;;2687507;53;20469;-37
2021/12/05 16:44:40;;;;;;;14.50;5.63;;;-3.80;94.90;;;;;;2687418;53;20087;-35
2021/12/05 16:47:16;;;;;;;13.73;5.93;;;-3.90;95.10;;;;;;2690658;53;20057;-32
2021/12/05 16:49:47;;;;;;;19.33;6.50;;;-4.00;95.20;;;;;;2703488;52;20069;-33
2021/12/05 16:52:21;;;;;;;23.17;6.83;;;-4.00;95.40;;;;;;2698493;52;20068;-34
2021/12/05 16:55:03;;;;;;;17.30;6.20;;;-4.00;95.50;;;;;;2698765;53;20061;-35
2021/12/05 16:57:40;;;;;;;18.17;5.53;;;-4.20;95.60;;;;;;2698752;53;20267;-35
2021/12/05 17:00:23;;;;;;;12.30;3.27;;;-4.20;96.20;;;;;;2694123;53;20081;-34
2021/12/05 17:02:56;;;;;;;5.03;2.03;;;-4.20;96.50;;;;;;2698569;53;20602;-34
2021/12/05 17:05:30;;;;;;;11.93;4.17;;;-4.10;96.60;;;;;;2703124;52;20080;-36
2021/12/05 17:08:23;;;;;;;6.83;2.83;;;-3.90;96.40;;;;;;2698046;53;20057;-33
2021/12/05 17:10:51;;;;;;;5.63;2.77;;;-4.00;96.20;;;;;;2698459;53;20565;-34
2021/12/05 17:13:34;;;;;;;5.57;2.47;;;-3.90;96.10;;;;;;2698635;53;20452;-38
2021/12/05 17:16:14;;;;;;;9.07;4.20;;;-3.90;96.10;;;;;;2698124;53;20069;-36
2021/12/05 17:18:46;;;;;;;6.03;2.57;;;-3.80;95.90;;;;;;2698273;53;20132;-34
2021/12/05 17:21:16;;;;;;;2.30;1.10;;;-3.80;95.90;;;;;;2703146;52;20096;-34
2021/12/05 17:23:57;;;;;;;9.57;3.37;;;-3.70;95.80;;;;;;2693787;53;20559;-37
2021/12/05 17:26:40;;;;;;;17.17;3.90;;;-3.70;95.70;;;;;;2698483;53;20533;-38
2021/12/05 17:29:21;;;;;;;13.43;4.07;;;-3.70;95.40;;;;;;2698215;53;20271;-39
2021/12/05 17:32:07;;;;;;;5.40;3.03;;;-3.60;95.50;;;;;;2698241;53;20077;-36
2021/12/05 17:34:51;;;;;;;7.47;2.37;;;-3.60;95.50;;;;;;2693737;53;20058;-34
2021/12/05 17:37:27;;;;;;;14.80;4.20;;;-3.60;95.10;;;;;;2693437;53;20469;-34
2021/12/05 17:39:54;;;;;;;9.53;3.27;;;-3.50;95.20;;;;;;2698629;53;20069;-35
2021/12/05 17:42:23;;;;;;;2.13;1.13;;;-3.50;95.20;;;;;;2698132;53;20142;-36
2021/12/05 17:44:55;;;;;;;8.77;3.60;;;-3.50;95.20;;;;;;2698201;53;20072;-38
2021/12/05 17:47:22;;;;;;;6.57;1.83;;;-3.40;95.00;;;;;;2690187;53;20133;-33
2021/12/05 17:49:51;;;;;;;3.23;0.93;;;-3.50;94.90;;;;;;2682266;53;20224;-35
2021/12/05 17:52:20;;;;;;;3.83;1.10;;;-3.40;94.90;;;;;;2691638;53;20125;-35
2021/12/05 17:55:02;;;;;;;13.17;4.37;;;-3.30;94.80;;;;;;2686828;53;20637;-36
2021/12/05 17:57:43;;;;;;;8.17;3.03;;;-3.40;94.80;;;;;;2686751;53;20073;-34
2021/12/05 18:00:56;;;;;;;10.33;2.40;;;-3.40;95.00;;;;;;2696296;53;20509;-34
2021/12/05 18:03:23;;;;;;;8.50;3.80;;;-3.40;94.90;;;;;;2691387;53;20073;-37
2021/12/05 18:05:50;;;;;;;11.90;4.17;;;-3.30;95.00;;;;;;2691422;53;20070;-35
2021/12/05 18:08:21;;;;;;;15.23;4.00;;;-3.30;94.90;;;;;;2686683;53;20082;-35
2021/12/05 18:10:55;;;;;;;11.13;3.87;;;-3.40;94.80;;;;;;2686729;53;20062;-36
2021/12/05 18:13:32;;;;;;;8.77;3.53;;;-3.40;95.00;;;;;;2687034;53;20154;-34
2021/12/05 18:16:13;;;;;;;13.57;2.83;;;-3.40;94.90;;;;;;2680106;53;20500;-34
2021/12/05 18:18:40;;;;;;;27.13;5.37;;;-3.30;95.10;;;;;;2675810;53;20074;-36
2021/12/05 18:21:09;;;;;;;25.57;4.90;;;-3.30;95.00;;;;;;2680263;53;20477;-40
2021/12/05 18:23:37;;;;;;;15.43;5.03;;;-3.30;94.90;;;;;;2675950;53;20530;-37
2021/12/05 18:26:04;;;;;;;12.20;4.30;;;-3.30;94.80;;;;;;2680634;53;20561;-33
2021/12/05 18:28:32;;;;;;;16.30;5.40;;;-3.30;94.70;;;;;;2676034;53;20547;-39
2021/12/05 18:30:59;;;;;;;26.13;5.33;;;-3.40;94.90;;;;;;2680136;53;20325;-35
2021/12/05 18:33:29;;;;;;;26.17;5.37;;;-3.50;95.40;;;;;;2680394;53;20126;-34
2021/12/05 18:35:56;;;;;;;14.50;6.57;;;-3.50;95.70;;;;;;2680366;53;20063;-35
2021/12/05 18:38:24;;;;;;;18.13;4.57;;;-3.40;95.60;;;;;;2680634;53;20066;-34